sensor_id;sensor_type;location;lat;lon;timestamp;P1;durP1;ratioP1;P2;durP2;ratioP2
64235;SDS011;50564;47.402;9.740;2023-05-19T00:03:30;5.60;;;3.47;;
64235;SDS011;50564;47.402;9.740;2023-05-19T00:08:33;7.93;;;4.43;;
64235;SDS011;50564;47.402;9.740;2023-05-19T00:13:34;6.68;;;4.25;;
64235;SDS011;50564;47.402;9.740;2023-05-19T00:18:35;6.38;;;4.05;;
64235;SDS011;50564;47.402;9.740;2023-05-19T00:23:36;7.28;;;4.30;;
64235;SDS011;50564;47.402;9.740;2023-05-19T00:28:36;5.63;;;3.88;;
64235;SDS011;50564;47.402;9.740;2023-05-19T00:33:37;8.27;;;4.35;;
64235;SDS011;50564;47.402;9.740;2023-05-19T00:38:38;7.22;;;3.90;;
64235;SDS011;50564;47.402;9.740;2023-05-19T00:43:39;7.00;;;3.83;;
64235;SDS011;50564;47.402;9.740;2023-05-19T00:48:39;6.50;;;3.75;;
64235;SDS011;50564;47.402;9.740;2023-05-19T00:53:40;7.65;;;4.10;;
64235;SDS011;50564;47.402;9.740;2023-05-19T00:58:43;7.75;;;3.67;;
64235;SDS011;50564;47.402;9.740;2023-05-19T01:03:44;7.75;;;4.32;;
64235;SDS011;50564;47.402;9.740;2023-05-19T01:08:46;8.57;;;4.07;;
64235;SDS011;50564;47.402;9.740;2023-05-19T01:13:46;9.55;;;4.15;;
64235;SDS011;50564;47.402;9.740;2023-05-19T01:35:05;6.18;;;4.28;;
64235;SDS011;50564;47.402;9.740;2023-05-19T01:40:07;6.75;;;4.35;;
64235;SDS011;50564;47.402;9.740;2023-05-19T01:45:09;5.70;;;3.85;;
64235;SDS011;50564;47.402;9.740;2023-05-19T01:50:10;6.80;;;3.47;;
64235;SDS011;50564;47.402;9.740;2023-05-19T01:55:11;8.43;;;4.53;;
64235;SDS011;50564;47.402;9.740;2023-05-19T02:10:40;7.68;;;3.70;;
64235;SDS011;50564;47.402;9.740;2023-05-19T02:15:42;7.18;;;4.15;;
64235;SDS011;50564;47.402;9.740;2023-05-19T02:20:44;5.93;;;3.63;;
64235;SDS011;50564;47.402;9.740;2023-05-19T02:25:45;6.38;;;3.90;;
64235;SDS011;50564;47.402;9.740;2023-05-19T02:30:46;7.03;;;4.10;;
64235;SDS011;50564;47.402;9.740;2023-05-19T02:35:46;7.80;;;3.75;;
64235;SDS011;50564;47.402;9.740;2023-05-19T02:40:50;6.93;;;3.72;;
64235;SDS011;50564;47.402;9.740;2023-05-19T02:45:52;5.10;;;3.50;;
64235;SDS011;50564;47.402;9.740;2023-05-19T02:50:53;6.30;;;3.80;;
64235;SDS011;50564;47.402;9.740;2023-05-19T02:55:53;5.05;;;3.75;;
64235;SDS011;50564;47.402;9.740;2023-05-19T03:00:54;7.95;;;4.00;;
64235;SDS011;50564;47.402;9.740;2023-05-19T03:05:55;4.93;;;3.42;;
64235;SDS011;50564;47.402;9.740;2023-05-19T03:10:56;6.68;;;4.00;;
64235;SDS011;50564;47.402;9.740;2023-05-19T03:15:56;6.10;;;3.80;;
64235;SDS011;50564;47.402;9.740;2023-05-19T03:20:58;6.15;;;3.85;;
64235;SDS011;50564;47.402;9.740;2023-05-19T03:25:59;7.75;;;4.28;;
64235;SDS011;50564;47.402;9.740;2023-05-19T03:31:00;12.15;;;7.85;;
64235;SDS011;50564;47.402;9.740;2023-05-19T03:36:06;7.75;;;6.05;;
64235;SDS011;50564;47.402;9.740;2023-05-19T03:41:11;9.23;;;5.05;;
64235;SDS011;50564;47.402;9.740;2023-05-19T03:46:11;6.80;;;5.10;;
64235;SDS011;50564;47.402;9.740;2023-05-19T03:51:27;8.68;;;4.55;;
64235;SDS011;50564;47.402;9.740;2023-05-19T03:56:36;4.70;;;3.03;;
64235;SDS011;50564;47.402;9.740;2023-05-19T04:01:41;6.43;;;3.97;;
64235;SDS011;50564;47.402;9.740;2023-05-19T04:06:41;9.15;;;4.93;;
64235;SDS011;50564;47.402;9.740;2023-05-19T04:11:42;6.30;;;4.07;;
64235;SDS011;50564;47.402;9.740;2023-05-19T04:16:42;7.07;;;4.28;;
64235;SDS011;50564;47.402;9.740;2023-05-19T04:21:43;7.60;;;4.05;;
64235;SDS011;50564;47.402;9.740;2023-05-19T04:26:44;9.30;;;4.82;;
64235;SDS011;50564;47.402;9.740;2023-05-19T04:31:47;9.50;;;5.38;;
64235;SDS011;50564;47.402;9.740;2023-05-19T04:36:48;10.90;;;7.47;;
64235;SDS011;50564;47.402;9.740;2023-05-19T04:41:49;13.80;;;8.88;;
64235;SDS011;50564;47.402;9.740;2023-05-19T04:46:50;8.90;;;6.10;;
64235;SDS011;50564;47.402;9.740;2023-05-19T04:51:54;8.43;;;5.40;;
64235;SDS011;50564;47.402;9.740;2023-05-19T04:56:58;10.20;;;5.57;;
64235;SDS011;50564;47.402;9.740;2023-05-19T05:02:02;8.75;;;5.43;;
64235;SDS011;50564;47.402;9.740;2023-05-19T05:07:04;10.32;;;5.80;;
64235;SDS011;50564;47.402;9.740;2023-05-19T05:12:06;9.65;;;5.93;;
64235;SDS011;50564;47.402;9.740;2023-05-19T05:17:10;10.70;;;6.35;;
64235;SDS011;50564;47.402;9.740;2023-05-19T05:22:11;9.70;;;6.60;;
64235;SDS011;50564;47.402;9.740;2023-05-19T05:27:13;12.90;;;7.78;;
64235;SDS011;50564;47.402;9.740;2023-05-19T05:32:14;11.25;;;6.80;;
64235;SDS011;50564;47.402;9.740;2023-05-19T05:37:16;11.20;;;7.30;;
64235;SDS011;50564;47.402;9.740;2023-05-19T05:42:17;10.15;;;5.65;;
64235;SDS011;50564;47.402;9.740;2023-05-19T05:47:19;8.95;;;5.68;;
64235;SDS011;50564;47.402;9.740;2023-05-19T05:52:20;8.38;;;5.55;;
64235;SDS011;50564;47.402;9.740;2023-05-19T05:57:22;8.27;;;5.43;;
64235;SDS011;50564;47.402;9.740;2023-05-19T06:02:23;9.43;;;5.13;;
64235;SDS011;50564;47.402;9.740;2023-05-19T06:07:24;6.90;;;4.70;;
64235;SDS011;50564;47.402;9.740;2023-05-19T06:12:25;7.47;;;4.65;;
64235;SDS011;50564;47.402;9.740;2023-05-19T06:17:26;7.00;;;4.38;;
64235;SDS011;50564;47.402;9.740;2023-05-19T06:22:27;6.95;;;3.88;;
64235;SDS011;50564;47.402;9.740;2023-05-19T06:27:28;10.80;;;3.65;;
64235;SDS011;50564;47.402;9.740;2023-05-19T06:32:29;6.60;;;3.25;;
64235;SDS011;50564;47.402;9.740;2023-05-19T06:37:31;5.10;;;3.05;;
64235;SDS011;50564;47.402;9.740;2023-05-19T06:42:32;4.85;;;3.03;;
64235;SDS011;50564;47.402;9.740;2023-05-19T06:47:47;4.47;;;2.70;;
64235;SDS011;50564;47.402;9.740;2023-05-19T06:52:49;5.80;;;2.53;;
64235;SDS011;50564;47.402;9.740;2023-05-19T06:57:50;8.32;;;3.35;;
64235;SDS011;50564;47.402;9.740;2023-05-19T07:02:53;4.03;;;2.75;;
64235;SDS011;50564;47.402;9.740;2023-05-19T07:07:54;6.82;;;2.92;;
64235;SDS011;50564;47.402;9.740;2023-05-19T07:12:59;5.95;;;3.45;;
64235;SDS011;50564;47.402;9.740;2023-05-19T07:18:05;5.68;;;3.28;;
64235;SDS011;50564;47.402;9.740;2023-05-19T07:23:05;4.18;;;2.95;;
64235;SDS011;50564;47.402;9.740;2023-05-19T07:28:06;4.15;;;2.72;;
64235;SDS011;50564;47.402;9.740;2023-05-19T07:33:07;4.50;;;2.90;;
64235;SDS011;50564;47.402;9.740;2023-05-19T07:38:07;4.45;;;3.15;;
64235;SDS011;50564;47.402;9.740;2023-05-19T07:43:08;4.70;;;3.22;;
64235;SDS011;50564;47.402;9.740;2023-05-19T07:48:10;3.53;;;2.75;;
64235;SDS011;50564;47.402;9.740;2023-05-19T07:53:11;4.78;;;2.78;;
64235;SDS011;50564;47.402;9.740;2023-05-19T07:58:11;5.07;;;3.20;;
64235;SDS011;50564;47.402;9.740;2023-05-19T08:03:12;4.38;;;3.08;;
64235;SDS011;50564;47.402;9.740;2023-05-19T08:08:16;5.13;;;3.08;;
64235;SDS011;50564;47.402;9.740;2023-05-19T08:13:18;3.88;;;2.65;;
64235;SDS011;50564;47.402;9.740;2023-05-19T08:18:19;5.15;;;3.40;;
64235;SDS011;50564;47.402;9.740;2023-05-19T08:23:20;5.97;;;3.03;;
64235;SDS011;50564;47.402;9.740;2023-05-19T08:28:21;5.32;;;2.85;;
64235;SDS011;50564;47.402;9.740;2023-05-19T08:33:21;5.43;;;3.13;;
64235;SDS011;50564;47.402;9.740;2023-05-19T08:38:23;6.45;;;4.05;;
64235;SDS011;50564;47.402;9.740;2023-05-19T08:43:24;4.60;;;3.03;;
64235;SDS011;50564;47.402;9.740;2023-05-19T08:48:26;4.85;;;3.28;;
64235;SDS011;50564;47.402;9.740;2023-05-19T08:53:35;5.22;;;3.50;;
64235;SDS011;50564;47.402;9.740;2023-05-19T08:58:40;6.13;;;3.63;;
64235;SDS011;50564;47.402;9.740;2023-05-19T09:03:43;6.95;;;3.55;;
64235;SDS011;50564;47.402;9.740;2023-05-19T09:08:45;6.43;;;3.55;;
64235;SDS011;50564;47.402;9.740;2023-05-19T09:13:46;7.82;;;3.83;;
64235;SDS011;50564;47.402;9.740;2023-05-19T09:18:54;6.95;;;3.63;;
64235;SDS011;50564;47.402;9.740;2023-05-19T09:24:05;9.02;;;4.47;;
64235;SDS011;50564;47.402;9.740;2023-05-19T09:29:13;15.35;;;6.40;;
64235;SDS011;50564;47.402;9.740;2023-05-19T09:34:15;9.55;;;5.22;;
64235;SDS011;50564;47.402;9.740;2023-05-19T09:39:16;7.85;;;4.38;;
64235;SDS011;50564;47.402;9.740;2023-05-19T09:44:21;7.50;;;4.20;;
64235;SDS011;50564;47.402;9.740;2023-05-19T09:49:31;9.15;;;4.60;;
64235;SDS011;50564;47.402;9.740;2023-05-19T09:54:33;11.98;;;5.45;;
64235;SDS011;50564;47.402;9.740;2023-05-19T09:59:33;17.42;;;6.65;;
64235;SDS011;50564;47.402;9.740;2023-05-19T10:04:34;7.15;;;4.65;;
64235;SDS011;50564;47.402;9.740;2023-05-19T10:09:35;6.00;;;4.07;;
64235;SDS011;50564;47.402;9.740;2023-05-19T10:14:37;7.15;;;4.60;;
64235;SDS011;50564;47.402;9.740;2023-05-19T10:19:37;7.80;;;4.22;;
64235;SDS011;50564;47.402;9.740;2023-05-19T10:24:39;6.47;;;4.50;;
64235;SDS011;50564;47.402;9.740;2023-05-19T10:29:41;5.50;;;4.43;;
64235;SDS011;50564;47.402;9.740;2023-05-19T10:39:56;7.43;;;4.32;;
64235;SDS011;50564;47.402;9.740;2023-05-19T10:50:18;9.30;;;4.10;;
64235;SDS011;50564;47.402;9.740;2023-05-19T10:55:43;8.07;;;4.70;;
64235;SDS011;50564;47.402;9.740;2023-05-19T11:00:47;6.63;;;4.22;;
64235;SDS011;50564;47.402;9.740;2023-05-19T11:11:46;6.45;;;4.55;;
64235;SDS011;50564;47.402;9.740;2023-05-19T11:16:50;8.32;;;4.57;;
64235;SDS011;50564;47.402;9.740;2023-05-19T11:21:52;8.52;;;4.63;;
64235;SDS011;50564;47.402;9.740;2023-05-19T11:26:56;8.27;;;4.72;;
64235;SDS011;50564;47.402;9.740;2023-05-19T11:31:57;9.48;;;4.60;;
64235;SDS011;50564;47.402;9.740;2023-05-19T11:36:58;10.27;;;5.70;;
64235;SDS011;50564;47.402;9.740;2023-05-19T11:41:59;10.55;;;5.20;;
64235;SDS011;50564;47.402;9.740;2023-05-19T11:46:59;24.83;;;9.30;;
64235;SDS011;50564;47.402;9.740;2023-05-19T11:52:00;10.15;;;4.82;;
64235;SDS011;50564;47.402;9.740;2023-05-19T11:57:02;9.25;;;5.30;;
64235;SDS011;50564;47.402;9.740;2023-05-19T12:07:17;7.18;;;4.63;;
64235;SDS011;50564;47.402;9.740;2023-05-19T12:12:19;8.18;;;4.30;;
64235;SDS011;50564;47.402;9.740;2023-05-19T12:17:20;8.18;;;5.03;;
64235;SDS011;50564;47.402;9.740;2023-05-19T12:22:23;8.45;;;5.05;;
64235;SDS011;50564;47.402;9.740;2023-05-19T12:27:23;7.63;;;4.53;;
64235;SDS011;50564;47.402;9.740;2023-05-19T12:32:27;7.25;;;4.93;;
64235;SDS011;50564;47.402;9.740;2023-05-19T12:37:28;10.65;;;5.68;;
64235;SDS011;50564;47.402;9.740;2023-05-19T12:42:29;7.40;;;4.50;;
64235;SDS011;50564;47.402;9.740;2023-05-19T12:47:31;10.82;;;4.57;;
64235;SDS011;50564;47.402;9.740;2023-05-19T12:52:42;6.78;;;4.70;;
64235;SDS011;50564;47.402;9.740;2023-05-19T12:57:47;7.65;;;4.72;;
64235;SDS011;50564;47.402;9.740;2023-05-19T13:08:00;9.32;;;4.80;;
64235;SDS011;50564;47.402;9.740;2023-05-19T13:13:10;6.53;;;3.92;;
64235;SDS011;50564;47.402;9.740;2023-05-19T13:18:12;7.63;;;3.83;;
64235;SDS011;50564;47.402;9.740;2023-05-19T13:23:13;9.77;;;4.40;;
64235;SDS011;50564;47.402;9.740;2023-05-19T13:28:14;8.95;;;3.85;;
64235;SDS011;50564;47.402;9.740;2023-05-19T13:33:15;7.50;;;4.78;;
64235;SDS011;50564;47.402;9.740;2023-05-19T13:38:16;6.57;;;4.13;;
64235;SDS011;50564;47.402;9.740;2023-05-19T13:43:16;9.25;;;3.90;;
64235;SDS011;50564;47.402;9.740;2023-05-19T13:48:17;8.18;;;4.00;;
64235;SDS011;50564;47.402;9.740;2023-05-19T13:53:18;9.32;;;4.68;;
64235;SDS011;50564;47.402;9.740;2023-05-19T13:58:19;8.00;;;3.92;;
64235;SDS011;50564;47.402;9.740;2023-05-19T14:03:20;10.85;;;4.25;;
64235;SDS011;50564;47.402;9.740;2023-05-19T14:08:20;6.60;;;4.25;;
64235;SDS011;50564;47.402;9.740;2023-05-19T14:13:21;7.57;;;3.90;;
64235;SDS011;50564;47.402;9.740;2023-05-19T14:18:22;7.95;;;4.00;;
64235;SDS011;50564;47.402;9.740;2023-05-19T14:23:23;8.07;;;4.00;;
64235;SDS011;50564;47.402;9.740;2023-05-19T14:28:24;7.45;;;3.80;;
64235;SDS011;50564;47.402;9.740;2023-05-19T14:33:24;8.07;;;4.68;;
64235;SDS011;50564;47.402;9.740;2023-05-19T14:38:25;6.88;;;3.95;;
64235;SDS011;50564;47.402;9.740;2023-05-19T14:43:26;9.50;;;4.63;;
64235;SDS011;50564;47.402;9.740;2023-05-19T14:48:26;8.07;;;4.65;;
64235;SDS011;50564;47.402;9.740;2023-05-19T14:53:27;7.75;;;4.32;;
64235;SDS011;50564;47.402;9.740;2023-05-19T14:58:28;8.20;;;4.43;;
64235;SDS011;50564;47.402;9.740;2023-05-19T15:03:28;4.95;;;3.65;;
64235;SDS011;50564;47.402;9.740;2023-05-19T15:08:29;7.35;;;4.20;;
64235;SDS011;50564;47.402;9.740;2023-05-19T15:13:29;7.30;;;4.25;;
64235;SDS011;50564;47.402;9.740;2023-05-19T15:18:30;13.50;;;4.95;;
64235;SDS011;50564;47.402;9.740;2023-05-19T15:23:31;7.57;;;4.32;;
64235;SDS011;50564;47.402;9.740;2023-05-19T15:28:31;7.93;;;4.72;;
64235;SDS011;50564;47.402;9.740;2023-05-19T15:33:32;8.80;;;4.75;;
64235;SDS011;50564;47.402;9.740;2023-05-19T15:38:36;7.82;;;4.70;;
64235;SDS011;50564;47.402;9.740;2023-05-19T15:43:36;7.47;;;4.38;;
64235;SDS011;50564;47.402;9.740;2023-05-19T15:48:38;9.25;;;5.10;;
64235;SDS011;50564;47.402;9.740;2023-05-19T15:53:38;7.95;;;5.15;;
64235;SDS011;50564;47.402;9.740;2023-05-19T15:58:39;9.68;;;4.65;;
64235;SDS011;50564;47.402;9.740;2023-05-19T16:03:39;8.23;;;5.00;;
64235;SDS011;50564;47.402;9.740;2023-05-19T16:08:40;8.13;;;5.38;;
64235;SDS011;50564;47.402;9.740;2023-05-19T16:13:41;10.27;;;6.57;;
64235;SDS011;50564;47.402;9.740;2023-05-19T16:18:41;13.23;;;7.63;;
64235;SDS011;50564;47.402;9.740;2023-05-19T16:23:43;9.70;;;6.38;;
64235;SDS011;50564;47.402;9.740;2023-05-19T16:28:43;10.90;;;5.97;;
64235;SDS011;50564;47.402;9.740;2023-05-19T16:33:44;12.07;;;6.80;;
64235;SDS011;50564;47.402;9.740;2023-05-19T16:38:45;10.68;;;7.28;;
64235;SDS011;50564;47.402;9.740;2023-05-19T16:43:46;13.02;;;8.82;;
64235;SDS011;50564;47.402;9.740;2023-05-19T16:48:46;15.35;;;8.35;;
64235;SDS011;50564;47.402;9.740;2023-05-19T16:53:47;13.88;;;8.13;;
64235;SDS011;50564;47.402;9.740;2023-05-19T16:58:47;16.80;;;9.43;;
64235;SDS011;50564;47.402;9.740;2023-05-19T17:03:48;12.98;;;9.23;;
64235;SDS011;50564;47.402;9.740;2023-05-19T17:08:49;13.05;;;7.50;;
64235;SDS011;50564;47.402;9.740;2023-05-19T17:13:49;12.10;;;8.15;;
64235;SDS011;50564;47.402;9.740;2023-05-19T17:18:50;12.90;;;7.97;;
64235;SDS011;50564;47.402;9.740;2023-05-19T17:23:50;10.90;;;8.50;;
64235;SDS011;50564;47.402;9.740;2023-05-19T17:28:51;12.93;;;8.07;;
64235;SDS011;50564;47.402;9.740;2023-05-19T17:33:51;10.70;;;7.32;;
64235;SDS011;50564;47.402;9.740;2023-05-19T17:38:52;10.95;;;7.53;;
64235;SDS011;50564;47.402;9.740;2023-05-19T17:43:53;9.77;;;6.50;;
64235;SDS011;50564;47.402;9.740;2023-05-19T17:48:53;12.38;;;6.82;;
64235;SDS011;50564;47.402;9.740;2023-05-19T17:53:54;14.27;;;9.15;;
64235;SDS011;50564;47.402;9.740;2023-05-19T17:58:55;12.48;;;7.95;;
64235;SDS011;50564;47.402;9.740;2023-05-19T18:03:55;13.95;;;7.82;;
64235;SDS011;50564;47.402;9.740;2023-05-19T18:08:57;12.02;;;8.15;;
64235;SDS011;50564;47.402;9.740;2023-05-19T18:13:58;12.23;;;8.45;;
64235;SDS011;50564;47.402;9.740;2023-05-19T18:18:58;15.30;;;12.10;;
64235;SDS011;50564;47.402;9.740;2023-05-19T18:24:00;15.38;;;10.32;;
64235;SDS011;50564;47.402;9.740;2023-05-19T18:29:02;13.45;;;10.50;;
64235;SDS011;50564;47.402;9.740;2023-05-19T18:34:04;17.27;;;12.50;;
64235;SDS011;50564;47.402;9.740;2023-05-19T18:39:04;17.20;;;13.25;;
64235;SDS011;50564;47.402;9.740;2023-05-19T18:44:05;16.65;;;12.93;;
64235;SDS011;50564;47.402;9.740;2023-05-19T18:49:07;12.50;;;9.65;;
64235;SDS011;50564;47.402;9.740;2023-05-19T18:54:07;12.73;;;10.27;;
64235;SDS011;50564;47.402;9.740;2023-05-19T18:59:08;15.60;;;10.80;;
64235;SDS011;50564;47.402;9.740;2023-05-19T19:04:11;12.43;;;9.65;;
64235;SDS011;50564;47.402;9.740;2023-05-19T19:09:13;13.00;;;9.68;;
64235;SDS011;50564;47.402;9.740;2023-05-19T19:14:14;13.82;;;9.68;;
64235;SDS011;50564;47.402;9.740;2023-05-19T19:19:15;13.10;;;9.95;;
64235;SDS011;50564;47.402;9.740;2023-05-19T19:24:15;12.23;;;7.78;;
64235;SDS011;50564;47.402;9.740;2023-05-19T19:29:16;11.52;;;8.02;;
64235;SDS011;50564;47.402;9.740;2023-05-19T19:34:17;13.25;;;9.07;;
64235;SDS011;50564;47.402;9.740;2023-05-19T19:39:18;12.95;;;9.32;;
64235;SDS011;50564;47.402;9.740;2023-05-19T19:44:19;10.57;;;8.02;;
64235;SDS011;50564;47.402;9.740;2023-05-19T19:49:23;10.98;;;7.40;;
64235;SDS011;50564;47.402;9.740;2023-05-19T19:54:23;9.95;;;6.90;;
64235;SDS011;50564;47.402;9.740;2023-05-19T19:59:24;11.00;;;7.53;;
64235;SDS011;50564;47.402;9.740;2023-05-19T20:04:25;11.63;;;8.25;;
64235;SDS011;50564;47.402;9.740;2023-05-19T20:09:26;12.85;;;10.55;;
64235;SDS011;50564;47.402;9.740;2023-05-19T20:14:26;18.60;;;11.40;;
64235;SDS011;50564;47.402;9.740;2023-05-19T20:19:27;15.52;;;11.45;;
64235;SDS011;50564;47.402;9.740;2023-05-19T20:24:27;13.68;;;9.38;;
64235;SDS011;50564;47.402;9.740;2023-05-19T20:29:28;9.80;;;6.55;;
64235;SDS011;50564;47.402;9.740;2023-05-19T20:34:29;10.00;;;6.47;;
64235;SDS011;50564;47.402;9.740;2023-05-19T20:39:29;10.50;;;7.50;;
64235;SDS011;50564;47.402;9.740;2023-05-19T20:44:30;10.40;;;7.25;;
64235;SDS011;50564;47.402;9.740;2023-05-19T20:49:31;12.77;;;7.93;;
64235;SDS011;50564;47.402;9.740;2023-05-19T20:54:31;9.65;;;6.63;;
64235;SDS011;50564;47.402;9.740;2023-05-19T20:59:32;9.35;;;6.63;;
64235;SDS011;50564;47.402;9.740;2023-05-19T21:04:33;10.48;;;6.65;;
64235;SDS011;50564;47.402;9.740;2023-05-19T21:09:33;11.25;;;6.63;;
64235;SDS011;50564;47.402;9.740;2023-05-19T21:14:53;9.90;;;6.55;;
64235;SDS011;50564;47.402;9.740;2023-05-19T21:19:54;8.35;;;5.88;;
64235;SDS011;50564;47.402;9.740;2023-05-19T21:24:57;10.00;;;6.88;;
64235;SDS011;50564;47.402;9.740;2023-05-19T21:29:57;8.68;;;6.72;;
64235;SDS011;50564;47.402;9.740;2023-05-19T21:34:58;11.80;;;7.28;;
64235;SDS011;50564;47.402;9.740;2023-05-19T21:40:00;11.38;;;7.28;;
64235;SDS011;50564;47.402;9.740;2023-05-19T21:45:01;9.10;;;6.30;;
64235;SDS011;50564;47.402;9.740;2023-05-19T21:50:01;12.13;;;7.72;;
64235;SDS011;50564;47.402;9.740;2023-05-19T21:55:02;11.32;;;8.15;;
64235;SDS011;50564;47.402;9.740;2023-05-19T22:00:03;10.95;;;7.30;;
64235;SDS011;50564;47.402;9.740;2023-05-19T22:05:11;10.32;;;7.80;;
64235;SDS011;50564;47.402;9.740;2023-05-19T22:10:12;12.77;;;7.78;;
64235;SDS011;50564;47.402;9.740;2023-05-19T22:15:13;9.75;;;7.40;;
64235;SDS011;50564;47.402;9.740;2023-05-19T22:20:14;9.23;;;7.22;;
64235;SDS011;50564;47.402;9.740;2023-05-19T22:25:15;12.50;;;6.88;;
64235;SDS011;50564;47.402;9.740;2023-05-19T22:30:16;9.55;;;7.10;;
64235;SDS011;50564;47.402;9.740;2023-05-19T22:35:16;11.27;;;7.72;;
64235;SDS011;50564;47.402;9.740;2023-05-19T22:40:18;10.25;;;7.90;;
64235;SDS011;50564;47.402;9.740;2023-05-19T22:45:18;11.15;;;7.43;;
64235;SDS011;50564;47.402;9.740;2023-05-19T22:50:19;11.45;;;8.52;;
64235;SDS011;50564;47.402;9.740;2023-05-19T22:55:20;10.20;;;7.47;;
64235;SDS011;50564;47.402;9.740;2023-05-19T23:00:21;12.68;;;8.45;;
64235;SDS011;50564;47.402;9.740;2023-05-19T23:05:21;12.32;;;7.32;;
64235;SDS011;50564;47.402;9.740;2023-05-19T23:10:22;9.63;;;7.32;;
64235;SDS011;50564;47.402;9.740;2023-05-19T23:15:22;9.70;;;7.53;;
64235;SDS011;50564;47.402;9.740;2023-05-19T23:20:23;9.88;;;7.57;;
64235;SDS011;50564;47.402;9.740;2023-05-19T23:25:24;12.93;;;9.07;;
64235;SDS011;50564;47.402;9.740;2023-05-19T23:30:24;13.50;;;9.02;;
64235;SDS011;50564;47.402;9.740;2023-05-19T23:35:25;12.23;;;8.70;;
64235;SDS011;50564;47.402;9.740;2023-05-19T23:40:26;12.68;;;8.75;;
64235;SDS011;50564;47.402;9.740;2023-05-19T23:45:26;14.80;;;9.93;;
64235;SDS011;50564;47.402;9.740;2023-05-19T23:50:27;13.77;;;8.98;;
64235;SDS011;50564;47.402;9.740;2023-05-19T23:55:27;11.40;;;9.00;;
